Time;durP1;ratioP1;P1;durP2;ratioP2;P2;SDS_P1;SDS_P2;PMS_P1;PMS_P2;Temp;Humidity;BMP_temperature;BMP_pressure;BME280_temperature;BME280_humidity;BME280_pressure;Samples;Min_cycle;Max_cycle;Signal;HPM_P1;HPM_P2
2023/06/08 00:01:50;;;;;;;28.20;14.32;;;;;;;;;;4867529;28;20179;-72
2023/06/08 00:04:16;;;;;;;28.85;14.52;;;;;;;;;;4881010;28;20060;-73
2023/06/08 00:06:43;;;;;;;27.65;13.70;;;;;;;;;;4881375;28;20395;-73
2023/06/08 00:09:12;;;;;;;25.30;14.65;;;;;;;;;;4880901;28;20047;-72
2023/06/08 00:11:40;;;;;;;30.80;14.80;;;;;;;;;;4866708;28;20981;-73
2023/06/08 00:14:06;;;;;;;27.08;14.63;;;;;;;;;;4865245;28;20106;-73
2023/06/08 00:16:33;;;;;;;24.35;15.18;;;;;;;;;;4867998;28;20037;-73
2023/06/08 00:19:00;;;;;;;25.08;15.25;;;;;;;;;;4867533;28;20404;-72
2023/06/08 00:21:29;;;;;;;24.50;14.15;;;;;;;;;;4868067;28;20040;-72
2023/06/08 00:23:54;;;;;;;29.10;14.80;;;;;;;;;;4866515;28;20034;-71
2023/06/08 00:26:20;;;;;;;29.08;14.38;;;;;;;;;;4863155;28;20067;-73
2023/06/08 00:28:48;;;;;;;26.25;15.38;;;;;;;;;;4863698;28;20132;-73
2023/06/08 00:31:17;;;;;;;28.63;14.88;;;;;;;;;;4866755;28;20669;-72
2023/06/08 00:33:43;;;;;;;27.23;15.23;;;;;;;;;;4867343;28;22625;-73
2023/06/08 00:36:08;;;;;;;29.42;15.52;;;;;;;;;;4866454;28;20124;-73
2023/06/08 00:38:36;;;;;;;24.80;13.88;;;;;;;;;;4867573;28;20049;-73
2023/06/08 00:41:02;;;;;;;26.77;14.02;;;;;;;;;;4865310;28;20442;-73
2023/06/08 00:43:27;;;;;;;28.63;14.43;;;;;;;;;;4866281;28;20075;-73
2023/06/08 00:45:55;;;;;;;27.88;14.60;;;;;;;;;;4867699;28;20053;-73
2023/06/08 00:48:21;;;;;;;27.35;15.00;;;;;;;;;;4866950;28;20087;-72
2023/06/08 00:50:50;;;;;;;24.20;14.65;;;;;;;;;;4880493;28;20048;-73
2023/06/08 00:53:16;;;;;;;28.13;14.27;;;;;;;;;;4866690;28;20370;-73
2023/06/08 00:55:43;;;;;;;27.27;14.10;;;;;;;;;;4866923;28;20040;-73
2023/06/08 00:58:13;;;;;;;25.38;14.10;;;;;;;;;;4879596;29;20072;-73
2023/06/08 01:00:38;;;;;;;25.90;14.27;;;;;;;;;;4866527;28;20042;-72
2023/06/08 01:03:04;;;;;;;24.60;13.65;;;;;;;;;;4865110;28;20055;-72
2023/06/08 01:05:32;;;;;;;29.25;14.73;;;;;;;;;;4881165;28;20051;-73
2023/06/08 01:08:10;;;;;;;27.70;15.10;;;;;;;;;;4865952;28;21841;-72
2023/06/08 01:10:41;;;;;;;30.83;14.70;;;;;;;;;;4866558;28;20041;-72
2023/06/08 01:13:15;;;;;;;28.67;15.07;;;;;;;;;;4866831;28;20056;-72
2023/06/08 01:15:46;;;;;;;27.55;14.48;;;;;;;;;;4866415;28;20301;-72
2023/06/08 01:18:13;;;;;;;26.13;14.60;;;;;;;;;;4849999;28;20053;-72
2023/06/08 01:20:41;;;;;;;26.52;13.73;;;;;;;;;;4879652;28;20510;-72
2023/06/08 01:23:25;;;;;;;27.20;14.27;;;;;;;;;;4864995;28;20074;-72
2023/06/08 01:25:52;;;;;;;23.08;13.80;;;;;;;;;;4879237;28;20055;-73
2023/06/08 01:28:20;;;;;;;29.40;13.50;;;;;;;;;;4865149;28;20045;-71
2023/06/08 01:30:48;;;;;;;27.92;14.13;;;;;;;;;;4864083;28;20086;-72
2023/06/08 01:33:24;;;;;;;24.75;13.55;;;;;;;;;;4846323;28;20036;-72
2023/06/08 01:35:58;;;;;;;27.15;14.15;;;;;;;;;;4865261;28;20075;-72
2023/06/08 01:38:28;;;;;;;24.25;13.57;;;;;;;;;;4880500;28;20070;-72
2023/06/08 01:40:55;;;;;;;25.65;14.35;;;;;;;;;;4864650;28;20044;-72
2023/06/08 01:43:23;;;;;;;25.45;13.52;;;;;;;;;;4865413;28;20064;-71
2023/06/08 01:45:51;;;;;;;27.95;14.48;;;;;;;;;;4865608;28;20144;-72
2023/06/08 01:48:19;;;;;;;29.73;14.98;;;;;;;;;;4866435;28;20044;-72
2023/06/08 01:50:45;;;;;;;25.80;13.77;;;;;;;;;;4863513;28;20135;-71
2023/06/08 01:53:11;;;;;;;28.35;14.95;;;;;;;;;;4864479;28;20579;-72
2023/06/08 01:55:36;;;;;;;27.42;14.93;;;;;;;;;;4879488;28;20037;-72
2023/06/08 01:58:01;;;;;;;27.25;14.52;;;;;;;;;;4880310;28;20075;-73
2023/06/08 02:00:27;;;;;;;26.33;15.32;;;;;;;;;;4864114;28;20845;-72
2023/06/08 02:02:52;;;;;;;31.15;15.10;;;;;;;;;;4879987;28;20045;-72
2023/06/08 02:05:19;;;;;;;24.85;14.48;;;;;;;;;;4864567;28;20044;-71
2023/06/08 02:07:45;;;;;;;28.00;15.88;;;;;;;;;;4864488;28;20056;-73
2023/06/08 02:10:11;;;;;;;30.00;14.80;;;;;;;;;;4865119;28;20064;-72
2023/06/08 02:12:36;;;;;;;31.52;16.33;;;;;;;;;;4864560;28;20064;-72
2023/06/08 02:15:03;;;;;;;26.95;15.90;;;;;;;;;;4864449;28;20043;-72
2023/06/08 02:17:33;;;;;;;29.40;16.63;;;;;;;;;;4865096;28;20037;-72
2023/06/08 02:20:00;;;;;;;31.90;16.90;;;;;;;;;;4865206;28;20040;-72
2023/06/08 02:22:27;;;;;;;39.88;17.42;;;;;;;;;;4862418;28;20439;-72
2023/06/08 02:24:52;;;;;;;30.80;16.92;;;;;;;;;;4863075;28;20390;-72
2023/06/08 02:27:18;;;;;;;30.25;18.25;;;;;;;;;;4879705;28;20065;-72
2023/06/08 02:29:44;;;;;;;32.58;16.77;;;;;;;;;;4865567;28;20037;-73
2023/06/08 02:32:09;;;;;;;32.95;18.63;;;;;;;;;;4864584;28;20036;-72
2023/06/08 02:34:36;;;;;;;31.05;18.25;;;;;;;;;;4909332;28;20048;-73
2023/06/08 02:37:01;;;;;;;36.70;17.98;;;;;;;;;;4864277;28;20037;-72
2023/06/08 02:39:27;;;;;;;33.47;18.08;;;;;;;;;;4864840;28;20043;-73
2023/06/08 02:41:52;;;;;;;36.03;18.77;;;;;;;;;;4865120;28;20517;-72
2023/06/08 02:44:17;;;;;;;34.60;19.42;;;;;;;;;;4864186;28;20061;-72
2023/06/08 02:46:42;;;;;;;37.03;19.80;;;;;;;;;;4879733;28;20095;-72
2023/06/08 02:49:10;;;;;;;36.33;18.65;;;;;;;;;;4864626;28;20043;-72
2023/06/08 02:51:35;;;;;;;39.55;19.35;;;;;;;;;;4865258;28;20040;-72
2023/06/08 02:54:03;;;;;;;41.05;20.55;;;;;;;;;;4861850;28;20124;-72
2023/06/08 02:56:36;;;;;;;35.58;19.05;;;;;;;;;;4860509;28;20052;-72
2023/06/08 02:59:02;;;;;;;33.78;19.90;;;;;;;;;;4863736;28;20143;-72
2023/06/08 03:01:30;;;;;;;34.53;18.15;;;;;;;;;;4864327;28;20068;-72
2023/06/08 03:03:58;;;;;;;37.78;18.33;;;;;;;;;;4864012;28;20107;-73
2023/06/08 03:06:26;;;;;;;35.53;18.23;;;;;;;;;;4877485;28;20694;-72
2023/06/08 03:08:54;;;;;;;34.85;18.73;;;;;;;;;;4863555;28;20041;-73
2023/06/08 03:11:20;;;;;;;33.63;17.45;;;;;;;;;;4864451;28;20050;-72
2023/06/08 03:13:45;;;;;;;34.78;18.83;;;;;;;;;;4864951;28;20045;-72
2023/06/08 03:16:12;;;;;;;33.08;18.50;;;;;;;;;;4863567;28;20032;-72
2023/06/08 03:18:39;;;;;;;34.45;17.98;;;;;;;;;;4864239;28;20182;-72
2023/06/08 03:21:07;;;;;;;34.30;17.75;;;;;;;;;;4865251;28;20045;-72
2023/06/08 03:23:35;;;;;;;31.90;18.10;;;;;;;;;;4865127;28;20457;-72
2023/06/08 03:26:03;;;;;;;34.83;17.88;;;;;;;;;;4863366;28;20049;-73
2023/06/08 03:28:29;;;;;;;35.80;18.55;;;;;;;;;;4863453;28;20061;-72
2023/06/08 03:30:54;;;;;;;35.90;17.65;;;;;;;;;;4862879;28;20044;-72
2023/06/08 03:33:20;;;;;;;37.58;17.88;;;;;;;;;;4878807;28;20048;-73
2023/06/08 03:35:46;;;;;;;34.42;18.00;;;;;;;;;;4864000;28;20041;-70
2023/06/08 03:38:11;;;;;;;33.47;17.90;;;;;;;;;;4865379;28;20461;-70
2023/06/08 03:40:36;;;;;;;34.17;17.20;;;;;;;;;;4863485;28;20067;-69
2023/06/08 03:43:02;;;;;;;31.55;16.92;;;;;;;;;;4865738;28;22276;-70
2023/06/08 03:45:27;;;;;;;32.25;18.55;;;;;;;;;;4864459;28;20053;-70
2023/06/08 03:47:52;;;;;;;37.80;17.08;;;;;;;;;;4864833;28;20453;-71
2023/06/08 03:50:18;;;;;;;31.58;17.20;;;;;;;;;;4864738;28;20051;-71
2023/06/08 03:52:43;;;;;;;32.80;17.90;;;;;;;;;;4863818;28;20167;-71
2023/06/08 03:55:08;;;;;;;30.90;16.65;;;;;;;;;;4864723;28;20052;-71
2023/06/08 03:57:35;;;;;;;31.60;17.35;;;;;;;;;;4864592;28;20056;-71
2023/06/08 04:00:01;;;;;;;32.15;17.25;;;;;;;;;;4864330;28;20120;-72
2023/06/08 04:02:26;;;;;;;36.03;17.35;;;;;;;;;;4863429;28;20054;-71
2023/06/08 04:04:53;;;;;;;36.30;17.42;;;;;;;;;;4878790;28;20386;-72
2023/06/08 04:07:21;;;;;;;34.67;18.20;;;;;;;;;;4878295;28;20040;-71
2023/06/08 04:09:49;;;;;;;26.60;16.85;;;;;;;;;;4861796;28;20044;-70
2023/06/08 04:12:14;;;;;;;34.95;17.08;;;;;;;;;;4863155;28;20056;-70
2023/06/08 04:14:40;;;;;;;34.72;17.88;;;;;;;;;;4862583;29;20196;-70
2023/06/08 04:17:05;;;;;;;32.70;18.35;;;;;;;;;;4863376;28;20049;-70
2023/06/08 04:19:30;;;;;;;30.55;18.27;;;;;;;;;;4862883;28;20068;-71
2023/06/08 04:21:56;;;;;;;29.15;17.42;;;;;;;;;;4863754;28;20045;-71
2023/06/08 04:24:22;;;;;;;31.80;18.38;;;;;;;;;;4858064;28;20225;-71
2023/06/08 04:26:48;;;;;;;30.08;17.23;;;;;;;;;;4879067;28;20040;-71
2023/06/08 04:29:15;;;;;;;33.50;18.15;;;;;;;;;;4866803;28;20757;-71
2023/06/08 04:31:41;;;;;;;33.30;18.20;;;;;;;;;;4866688;28;20041;-70
2023/06/08 04:34:06;;;;;;;36.70;17.88;;;;;;;;;;4867558;28;20324;-70
2023/06/08 04:36:34;;;;;;;32.33;18.42;;;;;;;;;;4866445;28;20047;-71
2023/06/08 04:39:00;;;;;;;32.40;17.98;;;;;;;;;;4865824;28;20033;-71
2023/06/08 04:41:29;;;;;;;35.75;18.73;;;;;;;;;;4864698;28;20135;-72
2023/06/08 04:43:54;;;;;;;36.65;18.42;;;;;;;;;;4880556;28;20037;-72
2023/06/08 04:46:25;;;;;;;34.05;18.05;;;;;;;;;;4866241;28;20057;-71
2023/06/08 04:48:51;;;;;;;33.03;18.15;;;;;;;;;;4865748;28;20049;-72
2023/06/08 04:51:17;;;;;;;28.30;17.67;;;;;;;;;;4881123;28;21658;-73
2023/06/08 04:53:42;;;;;;;28.20;17.75;;;;;;;;;;4927176;28;20036;-70
2023/06/08 04:56:07;;;;;;;31.75;18.77;;;;;;;;;;4866605;28;20059;-71
2023/06/08 04:58:33;;;;;;;33.40;18.40;;;;;;;;;;4866304;28;20481;-72
2023/06/08 05:00:58;;;;;;;37.55;18.30;;;;;;;;;;4865404;28;20036;-71
2023/06/08 05:03:25;;;;;;;28.23;18.30;;;;;;;;;;4879340;28;20178;-72
2023/06/08 05:05:54;;;;;;;34.30;17.13;;;;;;;;;;4866980;28;20131;-72
2023/06/08 05:08:19;;;;;;;29.45;17.80;;;;;;;;;;4867392;28;20079;-72
2023/06/08 05:10:47;;;;;;;25.83;17.60;;;;;;;;;;4865816;28;20122;-71
2023/06/08 05:13:14;;;;;;;27.15;16.02;;;;;;;;;;4866442;28;20168;-72
2023/06/08 05:15:42;;;;;;;27.58;15.18;;;;;;;;;;4867032;28;20048;-71
2023/06/08 05:18:07;;;;;;;26.52;14.80;;;;;;;;;;4864137;28;20650;-67
2023/06/08 05:20:33;;;;;;;25.17;15.35;;;;;;;;;;4865630;28;20048;-67
2023/06/08 05:22:58;;;;;;;31.02;15.27;;;;;;;;;;4866326;28;20043;-67
2023/06/08 05:25:23;;;;;;;28.67;14.77;;;;;;;;;;4863422;28;20052;-67
2023/06/08 05:27:49;;;;;;;28.10;16.15;;;;;;;;;;4864885;28;20044;-68
2023/06/08 05:30:14;;;;;;;26.50;15.30;;;;;;;;;;4865602;28;20128;-67
2023/06/08 05:32:40;;;;;;;25.92;13.93;;;;;;;;;;4879791;28;20041;-68
2023/06/08 05:35:06;;;;;;;31.52;14.60;;;;;;;;;;4861534;28;20051;-68
2023/06/08 05:37:31;;;;;;;27.85;13.77;;;;;;;;;;4858757;28;20123;-67
2023/06/08 05:39:57;;;;;;;23.48;13.27;;;;;;;;;;4858301;28;20107;-67
2023/06/08 05:42:22;;;;;;;22.90;13.48;;;;;;;;;;4860273;28;20063;-69
2023/06/08 05:44:50;;;;;;;24.85;13.60;;;;;;;;;;4876361;28;20207;-68
2023/06/08 05:47:15;;;;;;;21.33;11.90;;;;;;;;;;4862502;28;20049;-68
2023/06/08 05:49:40;;;;;;;23.15;12.80;;;;;;;;;;4864465;28;20576;-68
2023/06/08 05:52:06;;;;;;;24.23;12.57;;;;;;;;;;4861926;28;21969;-69
2023/06/08 05:54:31;;;;;;;21.27;12.48;;;;;;;;;;4862062;28;20080;-68
2023/06/08 05:56:56;;;;;;;22.10;12.32;;;;;;;;;;4861709;28;20036;-68
2023/06/08 05:59:22;;;;;;;22.10;13.52;;;;;;;;;;4862924;28;22190;-68
2023/06/08 06:01:49;;;;;;;24.88;12.95;;;;;;;;;;4878215;28;20036;-68
2023/06/08 06:04:19;;;;;;;28.33;13.23;;;;;;;;;;4845420;28;20140;-68
2023/06/08 06:06:46;;;;;;;24.17;12.70;;;;;;;;;;4864051;28;22373;-67
2023/06/08 06:09:12;;;;;;;24.80;13.85;;;;;;;;;;4879242;28;20060;-68
2023/06/08 06:11:37;;;;;;;27.88;14.65;;;;;;;;;;4862205;28;20075;-68
2023/06/08 06:14:03;;;;;;;29.15;15.13;;;;;;;;;;4879345;28;20056;-69
2023/06/08 06:16:28;;;;;;;23.02;14.13;;;;;;;;;;4874677;28;20107;-69
2023/06/08 06:18:56;;;;;;;23.52;13.00;;;;;;;;;;4854394;28;20071;-70
2023/06/08 06:21:21;;;;;;;22.25;12.60;;;;;;;;;;4860002;28;21006;-69
2023/06/08 06:23:47;;;;;;;17.63;11.50;;;;;;;;;;4863181;28;20105;-69
2023/06/08 06:26:15;;;;;;;21.45;11.23;;;;;;;;;;4861067;28;20059;-69
2023/06/08 06:28:41;;;;;;;16.77;10.40;;;;;;;;;;4879408;28;20068;-69
2023/06/08 06:31:06;;;;;;;20.65;11.15;;;;;;;;;;4861248;28;20130;-68
2023/06/08 06:33:31;;;;;;;18.98;10.23;;;;;;;;;;4863592;28;20094;-68
2023/06/08 06:35:57;;;;;;;17.17;10.27;;;;;;;;;;4861495;28;20045;-68
2023/06/08 06:38:22;;;;;;;19.08;9.90;;;;;;;;;;4861299;28;20045;-70
2023/06/08 06:40:52;;;;;;;17.55;9.73;;;;;;;;;;4862385;28;20076;-69
2023/06/08 06:43:19;;;;;;;14.88;9.10;;;;;;;;;;4862970;28;20036;-69
2023/06/08 06:45:44;;;;;;;21.17;8.80;;;;;;;;;;4862079;28;20139;-68
2023/06/08 06:48:10;;;;;;;15.35;9.40;;;;;;;;;;4863070;28;20036;-68
2023/06/08 06:50:35;;;;;;;19.58;9.20;;;;;;;;;;4860778;28;20040;-69
2023/06/08 06:53:00;;;;;;;20.23;9.80;;;;;;;;;;4861618;28;20036;-69
2023/06/08 06:55:25;;;;;;;16.77;9.45;;;;;;;;;;4854952;28;20135;-69
2023/06/08 06:57:52;;;;;;;16.02;9.40;;;;;;;;;;4873776;28;20040;-68
2023/06/08 07:00:21;;;;;;;18.73;9.20;;;;;;;;;;4862029;28;20042;-68
2023/06/08 07:02:47;;;;;;;19.73;9.52;;;;;;;;;;4860448;28;20110;-67
2023/06/08 07:05:12;;;;;;;17.08;9.52;;;;;;;;;;4860820;28;20044;-67
2023/06/08 07:07:38;;;;;;;17.50;9.57;;;;;;;;;;4861878;28;20033;-67
2023/06/08 07:10:03;;;;;;;16.88;9.43;;;;;;;;;;4860975;28;20040;-67
2023/06/08 07:12:30;;;;;;;20.33;10.52;;;;;;;;;;4876174;28;20091;-68
2023/06/08 07:14:55;;;;;;;18.67;9.20;;;;;;;;;;4864487;28;22156;-68
2023/06/08 07:17:20;;;;;;;19.50;8.45;;;;;;;;;;4878422;28;20041;-67
2023/06/08 07:19:47;;;;;;;17.20;8.90;;;;;;;;;;4864446;28;20052;-67
2023/06/08 07:22:15;;;;;;;17.20;8.68;;;;;;;;;;4862517;28;20037;-69
2023/06/08 07:24:40;;;;;;;16.65;8.02;;;;;;;;;;4862383;28;20049;-68
2023/06/08 07:27:06;;;;;;;14.02;7.63;;;;;;;;;;4859922;28;20078;-69
2023/06/08 07:29:32;;;;;;;16.98;7.75;;;;;;;;;;4860247;28;20087;-73
2023/06/08 07:31:57;;;;;;;13.43;7.18;;;;;;;;;;4877917;28;20052;-72
2023/06/08 07:34:22;;;;;;;15.98;7.43;;;;;;;;;;4862224;28;20294;-71
2023/06/08 07:36:48;;;;;;;12.38;6.80;;;;;;;;;;4862242;28;20071;-71
2023/06/08 07:39:13;;;;;;;15.35;6.88;;;;;;;;;;4859004;28;20047;-72
2023/06/08 07:41:38;;;;;;;16.33;7.22;;;;;;;;;;4865238;28;20037;-75
2023/06/08 07:44:03;;;;;;;13.40;7.70;;;;;;;;;;4865364;28;20067;-75
2023/06/08 07:46:29;;;;;;;11.88;5.90;;;;;;;;;;4862522;28;20128;-73
2023/06/08 07:48:56;;;;;;;15.27;6.47;;;;;;;;;;4862081;28;20123;-75
2023/06/08 07:51:22;;;;;;;13.20;6.55;;;;;;;;;;4863017;28;20170;-75
2023/06/08 07:53:48;;;;;;;14.38;6.75;;;;;;;;;;4862910;28;20779;-73
2023/06/08 07:56:13;;;;;;;11.40;6.53;;;;;;;;;;4861832;28;20041;-74
2023/06/08 07:58:38;;;;;;;11.15;6.63;;;;;;;;;;4864193;28;20041;-67
2023/06/08 08:01:04;;;;;;;12.65;6.90;;;;;;;;;;4866458;28;20868;-71
2023/06/08 08:03:29;;;;;;;12.10;6.72;;;;;;;;;;4864759;28;20071;-70
2023/06/08 08:05:54;;;;;;;12.07;6.68;;;;;;;;;;4864125;28;20064;-72
2023/06/08 08:08:20;;;;;;;10.88;6.53;;;;;;;;;;4864757;28;20040;-76
2023/06/08 08:10:45;;;;;;;32.53;8.25;;;;;;;;;;4864721;28;20029;-69
2023/06/08 08:13:12;;;;;;;20.02;6.80;;;;;;;;;;4865162;28;20091;-74
2023/06/08 08:15:39;;;;;;;14.15;6.78;;;;;;;;;;4864596;28;20040;-71
2023/06/08 08:18:09;;;;;;;12.00;6.50;;;;;;;;;;4866938;28;20490;-71
2023/06/08 08:20:37;;;;;;;12.43;6.93;;;;;;;;;;4866558;28;20037;-73
2023/06/08 08:23:08;;;;;;;13.75;6.95;;;;;;;;;;4867228;28;20091;-72
2023/06/08 08:25:36;;;;;;;13.65;6.10;;;;;;;;;;4863773;28;20270;-71
2023/06/08 08:28:01;;;;;;;12.23;6.57;;;;;;;;;;4865872;28;20033;-73
2023/06/08 08:30:27;;;;;;;11.95;6.32;;;;;;;;;;4879870;28;20044;-71
2023/06/08 08:32:52;;;;;;;9.10;5.38;;;;;;;;;;4880012;28;20040;-71
2023/06/08 08:35:17;;;;;;;12.00;5.38;;;;;;;;;;4863938;28;20209;-72
2023/06/08 08:37:43;;;;;;;13.93;5.35;;;;;;;;;;4863993;28;20033;-72
2023/06/08 08:40:11;;;;;;;11.73;4.78;;;;;;;;;;4863905;28;20052;-71
2023/06/08 08:42:42;;;;;;;10.68;4.93;;;;;;;;;;4866172;28;20037;-72
2023/06/08 08:45:07;;;;;;;;;;;;;;;;;;4867742;28;20778;-71
2023/06/08 08:47:33;;;;;;;12.45;5.75;;;;;;;;;;4880530;28;19962;-74
2023/06/08 08:50:03;;;;;;;10.13;5.30;;;;;;;;;;4865800;28;20383;-72
2023/06/08 08:52:29;;;;;;;9.00;4.47;;;;;;;;;;4862438;28;20033;-69
2023/06/08 08:54:56;;;;;;;12.68;4.95;;;;;;;;;;4863643;28;20521;-70
2023/06/08 08:57:22;;;;;;;15.02;5.47;;;;;;;;;;4865374;28;20049;-72
2023/06/08 08:59:47;;;;;;;14.32;5.47;;;;;;;;;;4866854;28;20189;-71
2023/06/08 09:02:12;;;;;;;12.77;4.50;;;;;;;;;;4865371;28;20044;-72
2023/06/08 09:04:38;;;;;;;10.63;4.80;;;;;;;;;;4865551;28;20870;-68
2023/06/08 09:07:03;;;;;;;13.38;4.97;;;;;;;;;;4866447;28;20048;-71
2023/06/08 09:09:28;;;;;;;13.32;4.72;;;;;;;;;;4865624;28;20610;-72
2023/06/08 09:12:00;;;;;;;22.10;5.45;;;;;;;;;;4865386;28;20035;-73
2023/06/08 09:14:26;;;;;;;10.95;4.63;;;;;;;;;;4881076;28;20036;-74
2023/06/08 09:16:54;;;;;;;12.25;5.05;;;;;;;;;;4879162;28;20217;-72
2023/06/08 09:19:20;;;;;;;13.27;5.25;;;;;;;;;;4863073;28;20047;-73
2023/06/08 09:21:45;;;;;;;10.07;4.40;;;;;;;;;;4865902;28;20063;-71
2023/06/08 09:24:18;;;;;;;10.13;4.75;;;;;;;;;;4927033;28;21107;-73
2023/06/08 09:26:45;;;;;;;10.73;4.70;;;;;;;;;;4864179;28;20051;-74
2023/06/08 09:29:12;;;;;;;10.95;4.75;;;;;;;;;;4864785;28;20123;-73
2023/06/08 09:31:48;;;;;;;11.13;4.32;;;;;;;;;;4865446;28;20037;-74
2023/06/08 09:34:14;;;;;;;8.35;4.60;;;;;;;;;;4865087;28;20119;-72
2023/06/08 09:36:39;;;;;;;15.38;4.80;;;;;;;;;;4849869;28;20053;-72
2023/06/08 09:39:05;;;;;;;14.57;4.80;;;;;;;;;;4863847;28;20811;-73
2023/06/08 09:41:32;;;;;;;11.00;4.60;;;;;;;;;;4865116;28;20067;-71
2023/06/08 09:43:57;;;;;;;10.23;4.30;;;;;;;;;;4865103;28;20056;-74
2023/06/08 09:46:32;;;;;;;14.98;5.20;;;;;;;;;;4864664;28;20135;-73
2023/06/08 09:48:57;;;;;;;10.32;4.55;;;;;;;;;;4880193;28;20123;-71
2023/06/08 09:51:23;;;;;;;10.57;4.07;;;;;;;;;;4863992;28;20036;-72
2023/06/08 09:53:56;;;;;;;11.48;4.60;;;;;;;;;;4865969;28;20043;-73
2023/06/08 09:56:25;;;;;;;12.27;4.88;;;;;;;;;;4863254;28;20041;-76
2023/06/08 09:58:54;;;;;;;10.02;4.60;;;;;;;;;;4864066;28;20048;-71
2023/06/08 10:01:32;;;;;;;12.98;4.97;;;;;;;;;;4862418;28;21032;-71
2023/06/08 10:04:01;;;;;;;6.93;4.38;;;;;;;;;;4862944;28;20046;-74
2023/06/08 10:06:31;;;;;;;11.50;4.88;;;;;;;;;;4864876;28;20118;-70
2023/06/08 10:08:58;;;;;;;12.50;4.38;;;;;;;;;;4877969;28;21033;-69
2023/06/08 10:11:27;;;;;;;13.38;5.28;;;;;;;;;;4862406;28;20781;-71
2023/06/08 10:13:53;;;;;;;7.40;4.53;;;;;;;;;;4861690;28;20071;-69
2023/06/08 10:16:19;;;;;;;18.15;5.07;;;;;;;;;;4864156;28;20041;-68
2023/06/08 10:18:47;;;;;;;11.35;4.78;;;;;;;;;;4863101;28;20055;-71
2023/06/08 10:21:12;;;;;;;10.73;4.05;;;;;;;;;;4862414;28;20073;-71
2023/06/08 10:23:38;;;;;;;11.43;4.90;;;;;;;;;;4860404;28;20126;-70
2023/06/08 10:26:05;;;;;;;16.05;4.95;;;;;;;;;;4862054;28;20414;-68
2023/06/08 10:28:30;;;;;;;10.25;4.63;;;;;;;;;;4862735;28;20147;-69
2023/06/08 10:30:56;;;;;;;13.02;4.85;;;;;;;;;;4862826;28;20039;-70
2023/06/08 10:33:24;;;;;;;10.68;4.75;;;;;;;;;;4861678;28;20072;-70
2023/06/08 10:36:05;;;;;;;13.18;4.72;;;;;;;;;;4862892;28;20044;-70
2023/06/08 10:38:31;;;;;;;11.93;5.13;;;;;;;;;;4862301;28;20052;-70
2023/06/08 10:40:56;;;;;;;12.50;4.82;;;;;;;;;;4861277;28;20070;-69
2023/06/08 10:43:30;;;;;;;16.15;4.97;;;;;;;;;;4862131;28;20036;-70
2023/06/08 10:45:57;;;;;;;10.60;4.65;;;;;;;;;;4861183;28;20839;-71
2023/06/08 10:48:22;;;;;;;11.43;4.63;;;;;;;;;;4861978;28;20051;-69
2023/06/08 10:50:49;;;;;;;15.77;5.72;;;;;;;;;;4862945;28;20033;-71
2023/06/08 10:53:18;;;;;;;11.30;4.90;;;;;;;;;;4862233;28;20051;-70
2023/06/08 10:55:47;;;;;;;9.98;4.88;;;;;;;;;;4860863;28;20045;-70
2023/06/08 10:58:15;;;;;;;13.55;5.00;;;;;;;;;;4862025;28;20036;-70
2023/06/08 11:00:47;;;;;;;13.02;4.88;;;;;;;;;;4861742;28;20040;-70
2023/06/08 11:03:12;;;;;;;;;;;;;;;;;;4861813;28;20484;-69
2023/06/08 11:05:38;;;;;;;14.27;4.80;;;;;;;;;;4862880;28;19927;-68
2023/06/08 11:08:04;;;;;;;9.65;4.20;;;;;;;;;;4863598;28;20048;-68
2023/06/08 11:10:33;;;;;;;9.38;4.43;;;;;;;;;;4862549;28;20052;-68
2023/06/08 11:13:05;;;;;;;10.73;4.18;;;;;;;;;;4863029;28;20066;-68
2023/06/08 11:15:31;;;;;;;12.40;4.57;;;;;;;;;;4859598;28;20032;-68
2023/06/08 11:17:56;;;;;;;12.55;4.43;;;;;;;;;;4860860;28;20067;-68
2023/06/08 11:20:28;;;;;;;12.30;4.38;;;;;;;;;;4862162;28;20045;-68
2023/06/08 11:22:54;;;;;;;10.65;4.05;;;;;;;;;;4876185;28;20094;-70
2023/06/08 11:25:20;;;;;;;10.25;4.78;;;;;;;;;;4861662;28;21000;-71
2023/06/08 11:27:46;;;;;;;9.35;4.00;;;;;;;;;;4861790;28;20390;-69
2023/06/08 11:30:17;;;;;;;7.53;4.05;;;;;;;;;;4860221;28;20037;-70
2023/06/08 11:32:45;;;;;;;11.68;4.00;;;;;;;;;;4845514;28;20047;-68
2023/06/08 11:35:13;;;;;;;12.65;3.92;;;;;;;;;;4878778;28;20041;-70
2023/06/08 11:37:39;;;;;;;10.07;4.13;;;;;;;;;;4863296;28;20132;-68
2023/06/08 11:40:12;;;;;;;13.43;4.43;;;;;;;;;;4878773;28;20051;-69
2023/06/08 11:42:37;;;;;;;12.80;4.75;;;;;;;;;;4866656;28;20067;-72
2023/06/08 11:45:04;;;;;;;11.50;4.50;;;;;;;;;;4864012;28;20080;-70
2023/06/08 11:47:30;;;;;;;13.00;4.38;;;;;;;;;;4863311;28;20040;-70
2023/06/08 11:49:57;;;;;;;9.60;4.57;;;;;;;;;;4863630;28;20176;-70
2023/06/08 11:52:23;;;;;;;9.57;4.35;;;;;;;;;;4864014;28;20191;-70
2023/06/08 11:54:54;;;;;;;13.82;4.25;;;;;;;;;;4928657;28;20086;-70
2023/06/08 11:57:36;;;;;;;12.75;4.63;;;;;;;;;;4867091;28;20045;-69
2023/06/08 12:00:06;;;;;;;10.88;4.35;;;;;;;;;;4863629;28;20099;-72
2023/06/08 12:02:34;;;;;;;12.18;4.75;;;;;;;;;;4862516;28;20041;-70
2023/06/08 12:04:59;;;;;;;12.05;4.18;;;;;;;;;;4862497;28;20056;-70
2023/06/08 12:07:25;;;;;;;13.10;4.70;;;;;;;;;;4864196;28;20102;-69
2023/06/08 12:09:50;;;;;;;15.13;5.05;;;;;;;;;;4863261;28;20044;-70
2023/06/08 12:12:15;;;;;;;9.23;4.53;;;;;;;;;;4864790;28;20832;-71
2023/06/08 12:14:44;;;;;;;8.73;4.30;;;;;;;;;;4864202;28;20167;-70
2023/06/08 12:17:15;;;;;;;;;;;;;;;;;;4865982;28;20047;-71
2023/06/08 12:19:43;;;;;;;10.80;4.28;;;;;;;;;;4864719;28;19919;-71
2023/06/08 12:22:11;;;;;;;11.50;4.30;;;;;;;;;;4863872;28;20721;-71
2023/06/08 12:24:37;;;;;;;11.45;4.00;;;;;;;;;;4863656;28;22271;-70
2023/06/08 12:27:08;;;;;;;26.73;4.95;;;;;;;;;;4881367;28;20091;-70
2023/06/08 12:29:37;;;;;;;35.50;6.38;;;;;;;;;;4864051;28;20037;-66
2023/06/08 12:32:05;;;;;;;15.50;4.60;;;;;;;;;;4862192;28;20091;-70
2023/06/08 12:34:31;;;;;;;10.18;4.43;;;;;;;;;;4862681;28;20742;-70
2023/06/08 12:36:56;;;;;;;19.45;4.55;;;;;;;;;;4861944;28;20029;-70
2023/06/08 12:39:22;;;;;;;9.00;4.13;;;;;;;;;;4864254;28;20049;-71
2023/06/08 12:41:47;;;;;;;10.07;4.60;;;;;;;;;;4860365;28;20041;-71
2023/06/08 12:44:12;;;;;;;10.80;4.55;;;;;;;;;;4876653;28;20064;-73
2023/06/08 12:46:38;;;;;;;10.00;4.07;;;;;;;;;;4863836;28;20087;-71
2023/06/08 12:49:04;;;;;;;10.30;3.97;;;;;;;;;;4860930;28;20047;-70
2023/06/08 12:51:40;;;;;;;12.50;4.30;;;;;;;;;;4873936;28;20453;-71
2023/06/08 12:54:05;;;;;;;10.82;4.32;;;;;;;;;;4860226;28;20132;-68
2023/06/08 12:56:30;;;;;;;13.60;4.60;;;;;;;;;;4857289;28;20104;-72
2023/06/08 12:58:56;;;;;;;12.50;4.63;;;;;;;;;;4868031;28;20340;-71
2023/06/08 13:01:21;;;;;;;12.93;4.30;;;;;;;;;;4861502;28;20377;-70
2023/06/08 13:03:47;;;;;;;10.93;4.45;;;;;;;;;;4875745;28;20646;-69
2023/06/08 13:06:15;;;;;;;9.98;4.40;;;;;;;;;;4860332;28;20057;-71
2023/06/08 13:08:47;;;;;;;10.27;4.70;;;;;;;;;;4861773;28;20059;-71
2023/06/08 13:11:13;;;;;;;10.68;4.05;;;;;;;;;;4860494;28;20044;-71
2023/06/08 13:13:38;;;;;;;9.20;4.20;;;;;;;;;;4861532;28;20044;-72
2023/06/08 13:16:06;;;;;;;12.70;4.05;;;;;;;;;;4862366;28;20045;-69
2023/06/08 13:18:34;;;;;;;10.10;4.05;;;;;;;;;;4859374;28;20052;-71
2023/06/08 13:20:59;;;;;;;11.52;3.85;;;;;;;;;;4863455;28;20187;-72
2023/06/08 13:23:25;;;;;;;9.80;4.03;;;;;;;;;;4863922;28;20044;-72
2023/06/08 13:25:51;;;;;;;10.48;4.00;;;;;;;;;;4862448;28;20111;-69
2023/06/08 13:28:19;;;;;;;11.88;4.05;;;;;;;;;;4860406;28;20083;-71
2023/06/08 13:30:44;;;;;;;10.40;4.55;;;;;;;;;;4860898;28;20041;-69
2023/06/08 13:33:10;;;;;;;12.77;4.38;;;;;;;;;;4862116;28;20044;-71
2023/06/08 13:35:37;;;;;;;11.52;4.70;;;;;;;;;;4862141;28;20168;-71
2023/06/08 13:38:02;;;;;;;9.57;4.13;;;;;;;;;;4859143;28;20167;-70
2023/06/08 13:40:34;;;;;;;11.85;4.80;;;;;;;;;;4859557;28;20043;-69
2023/06/08 13:43:03;;;;;;;14.02;4.60;;;;;;;;;;4863404;28;20053;-68
2023/06/08 13:45:30;;;;;;;10.82;4.32;;;;;;;;;;4860538;28;20072;-70
2023/06/08 13:47:56;;;;;;;11.18;4.28;;;;;;;;;;4859932;28;20036;-70
2023/06/08 13:50:24;;;;;;;13.35;4.20;;;;;;;;;;4860986;28;20095;-70
2023/06/08 13:52:50;;;;;;;11.70;3.90;;;;;;;;;;4876535;28;20064;-71
2023/06/08 13:55:15;;;;;;;11.68;4.30;;;;;;;;;;4858221;28;20043;-71
2023/06/08 13:57:40;;;;;;;13.55;3.90;;;;;;;;;;4861093;28;20040;-71
2023/06/08 14:00:06;;;;;;;11.30;4.18;;;;;;;;;;4860332;28;20103;-71
2023/06/08 14:02:31;;;;;;;10.50;4.25;;;;;;;;;;4865350;28;20403;-74
2023/06/08 14:04:59;;;;;;;8.27;3.85;;;;;;;;;;4868903;28;20642;-72
2023/06/08 14:07:24;;;;;;;12.63;4.22;;;;;;;;;;4867657;28;20509;-73
2023/06/08 14:09:52;;;;;;;15.27;4.63;;;;;;;;;;4876492;28;20099;-72
2023/06/08 14:12:17;;;;;;;9.25;4.00;;;;;;;;;;4863347;28;20066;-73
2023/06/08 14:14:46;;;;;;;12.20;3.90;;;;;;;;;;4863255;28;20032;-72
2023/06/08 14:17:12;;;;;;;10.15;3.80;;;;;;;;;;4864488;28;20044;-69
2023/06/08 14:19:37;;;;;;;9.32;3.95;;;;;;;;;;4862430;28;20032;-71
2023/06/08 14:22:05;;;;;;;8.38;4.03;;;;;;;;;;4859976;28;20095;-73
2023/06/08 14:24:30;;;;;;;11.80;4.20;;;;;;;;;;4859797;28;20104;-68